Time;durP1;ratioP1;P1;durP2;ratioP2;P2;SDS_P1;SDS_P2;PMS_P1;PMS_P2;Temp;Humidity;BMP_temperature;BMP_pressure;BME280_temperature;BME280_humidity;BME280_pressure;Samples;Min_cycle;Max_cycle;Signal;HPM_P1;HPM_P2
2021/05/24 00:01:59;;;;;;;3.33;0.95;;;13.10;72.60;;;12.51;62.72;100197.00;5011064;28;20149;-78
2021/05/24 00:04:34;;;;;;;4.50;0.95;;;13.10;72.90;;;12.51;61.84;100194.28;5010997;28;20046;-78
2021/05/24 00:07:15;;;;;;;4.25;0.98;;;13.10;72.40;;;12.54;62.24;100197.63;5026103;28;20050;-78
2021/05/24 00:09:53;;;;;;;3.42;1.42;;;13.20;72.30;;;12.51;62.03;100183.34;5010823;28;20042;-78
2021/05/24 00:12:28;;;;;;;2.90;1.10;;;13.20;72.50;;;12.52;62.34;100187.75;5010972;28;20104;-78
2021/05/24 00:15:10;;;;;;;5.63;0.98;;;13.20;72.30;;;12.55;62.40;100180.22;5012501;28;20041;-78
2021/05/24 00:17:48;;;;;;;3.90;0.90;;;13.20;71.90;;;12.57;62.50;100175.41;5026064;28;20045;-79
2021/05/24 00:20:27;;;;;;;3.45;1.13;;;13.30;72.50;;;12.60;62.84;100183.16;5030182;28;20049;-78
2021/05/24 00:23:03;;;;;;;5.18;1.10;;;13.20;72.30;;;12.57;61.81;100172.66;5030442;28;20811;-79
2021/05/24 00:25:41;;;;;;;5.68;1.27;;;13.30;72.10;;;12.59;62.48;100173.31;5030305;28;20042;-78
2021/05/24 00:28:19;;;;;;;5.50;1.10;;;13.30;72.00;;;12.60;62.85;100172.25;5030461;28;20053;-78
2021/05/24 00:30:56;;;;;;;3.88;0.90;;;13.30;72.60;;;12.60;62.69;100153.97;5028536;28;20568;-79
2021/05/24 00:33:34;;;;;;;3.90;0.98;;;13.30;72.50;;;12.62;62.85;100167.41;5030258;28;20054;-78
2021/05/24 00:36:12;;;;;;;2.85;1.08;;;13.30;72.50;;;12.58;63.29;100155.22;5030101;28;20045;-79
2021/05/24 00:38:51;;;;;;;6.15;1.30;;;13.30;72.50;;;12.61;63.10;100152.09;5030072;28;20084;-78
2021/05/24 00:41:29;;;;;;;4.75;0.90;;;13.30;72.70;;;12.63;63.51;100147.28;5029783;28;20041;-78
2021/05/24 00:44:07;;;;;;;4.70;1.20;;;13.40;72.70;;;12.61;63.00;100133.00;5029977;28;20064;-79
2021/05/24 00:46:46;;;;;;;4.22;0.95;;;13.40;72.10;;;12.64;63.43;100129.81;5030179;28;20041;-78
2021/05/24 00:49:21;;;;;;;3.55;1.10;;;13.40;72.60;;;12.65;63.78;100134.25;5029959;28;20436;-78
2021/05/24 00:52:00;;;;;;;6.95;1.10;;;13.40;72.80;;;12.62;63.43;100129.19;5029815;28;20054;-78
2021/05/24 00:54:39;;;;;;;4.55;1.30;;;13.40;72.60;;;12.60;62.87;100123.09;5029759;28;20050;-78
2021/05/24 00:57:17;;;;;;;3.45;0.82;;;13.40;72.50;;;12.63;63.67;100126.25;5029703;28;20073;-78
2021/05/24 00:59:52;;;;;;;2.65;0.88;;;13.40;72.80;;;12.64;63.89;100127.09;5029546;28;20052;-78
2021/05/24 01:02:28;;;;;;;3.70;1.00;;;13.40;72.80;;;12.65;63.80;100118.69;5029809;28;20569;-78
2021/05/24 01:05:06;;;;;;;3.28;1.00;;;13.40;72.80;;;12.67;64.13;100107.56;5029652;28;20053;-79
2021/05/24 01:07:44;;;;;;;3.63;1.10;;;13.40;73.10;;;12.65;63.86;100112.41;5029700;28;20053;-79
2021/05/24 01:10:23;;;;;;;5.38;1.08;;;13.40;73.20;;;12.66;64.15;100111.34;5029340;28;20041;-79
2021/05/24 01:13:00;;;;;;;8.88;1.10;;;13.50;73.10;;;12.69;64.47;100102.75;5029601;28;20076;-78
2021/05/24 01:15:30;;;;;;;4.63;0.95;;;13.50;73.30;;;12.72;64.20;100102.34;5029427;28;20073;-78
2021/05/24 01:18:08;;;;;;;3.83;0.98;;;13.50;73.00;;;12.75;64.37;100096.44;5029421;28;20075;-78
2021/05/24 01:20:46;;;;;;;3.55;0.90;;;13.50;73.40;;;12.77;64.23;100096.25;5029241;28;20065;-78
2021/05/24 01:23:27;;;;;;;2.70;0.90;;;13.50;73.50;;;12.73;64.31;100087.63;5029426;28;20052;-78
2021/05/24 01:26:06;;;;;;;2.45;0.90;;;13.50;73.20;;;12.76;64.85;100089.13;5029279;28;20114;-79
2021/05/24 01:28:41;;;;;;;3.70;0.80;;;13.60;73.40;;;12.74;63.99;100081.13;5031842;28;20061;-79
2021/05/24 01:31:15;;;;;;;4.05;0.95;;;13.60;72.40;;;12.78;64.36;100073.34;5029011;28;20116;-78
2021/05/24 01:33:50;;;;;;;5.15;0.90;;;13.60;72.90;;;12.78;63.95;100076.91;5029135;28;20056;-79
2021/05/24 01:36:29;;;;;;;3.17;0.80;;;13.70;72.40;;;12.83;64.53;100077.13;5029203;28;20068;-79
2021/05/24 01:39:10;;;;;;;5.90;1.00;;;13.70;73.10;;;12.86;64.73;100078.59;5029043;28;20044;-79
2021/05/24 01:41:45;;;;;;;3.28;1.00;;;13.70;73.20;;;12.87;64.46;100078.41;5028882;28;20172;-79
2021/05/24 01:44:30;;;;;;;6.45;1.15;;;13.70;73.30;;;12.88;64.43;100069.13;5028879;28;20045;-79
2021/05/24 01:47:08;;;;;;;3.40;0.77;;;13.70;73.30;;;12.84;64.56;100065.16;5028964;28;20076;-79
2021/05/24 01:49:47;;;;;;;2.20;0.77;;;13.70;73.20;;;12.83;64.02;100076.28;5028541;28;20077;-78
2021/05/24 01:52:21;;;;;;;3.90;1.00;;;13.70;72.50;;;12.86;64.29;100073.97;5028968;28;20053;-79
2021/05/24 01:54:57;;;;;;;3.45;0.90;;;13.70;72.90;;;12.87;64.95;100067.47;5028689;28;20452;-78
2021/05/24 01:57:27;;;;;;;2.90;0.93;;;13.80;73.20;;;12.88;64.71;100062.84;5028816;28;20053;-78
2021/05/24 02:00:03;;;;;;;4.43;0.80;;;13.70;73.60;;;12.80;64.66;100066.63;5028372;28;20585;-78
2021/05/24 02:02:41;;;;;;;3.20;0.90;;;13.70;73.00;;;12.81;64.72;100062.84;5028795;28;20049;-79
2021/05/24 02:05:16;;;;;;;3.45;0.95;;;13.70;73.30;;;12.85;64.84;100064.13;5027144;28;20076;-79
2021/05/24 02:07:56;;;;;;;3.33;1.00;;;13.70;73.50;;;12.86;64.73;100059.47;5028071;28;20065;-79
2021/05/24 02:10:38;;;;;;;8.20;0.88;;;13.70;73.60;;;12.84;65.32;100058.84;5028281;28;20076;-78
2021/05/24 02:13:12;;;;;;;3.65;1.13;;;13.70;74.00;;;12.86;65.07;100054.84;5028711;28;20054;-79
2021/05/24 02:15:48;;;;;;;3.50;0.90;;;13.70;74.00;;;12.84;64.99;100050.66;5028429;28;20045;-79
2021/05/24 02:18:25;;;;;;;2.30;0.80;;;13.70;74.10;;;12.85;65.21;100053.19;5028542;28;20049;-79
2021/05/24 02:21:02;;;;;;;2.80;0.95;;;13.70;74.00;;;12.88;65.03;100046.44;5028313;28;20073;-79
2021/05/24 02:23:40;;;;;;;3.45;0.82;;;13.70;73.90;;;12.85;64.94;100047.72;5028480;28;20069;-78
2021/05/24 02:26:19;;;;;;;6.03;1.27;;;13.70;74.10;;;12.88;65.23;100044.56;5028422;28;20095;-79
2021/05/24 02:28:55;;;;;;;3.25;0.80;;;13.70;74.30;;;12.85;65.34;100035.94;5028488;28;20107;-78
2021/05/24 02:31:33;;;;;;;4.47;1.17;;;13.60;74.50;;;12.79;65.22;100042.25;5028230;28;20045;-78
2021/05/24 02:34:11;;;;;;;4.80;1.05;;;13.60;74.40;;;12.78;65.44;100033.22;5028381;28;20064;-78
2021/05/24 02:36:46;;;;;;;2.33;0.90;;;13.60;74.50;;;12.77;64.99;100037.00;5028373;28;20053;-78
2021/05/24 02:39:24;;;;;;;3.75;0.95;;;13.60;73.90;;;12.80;65.54;100039.31;5028221;28;20481;-79
2021/05/24 02:42:04;;;;;;;2.40;0.82;;;13.60;74.40;;;12.83;65.70;100033.44;5028279;28;20041;-79
2021/05/24 02:44:42;;;;;;;4.13;1.02;;;13.60;74.30;;;12.82;65.41;100031.75;5026874;28;20112;-79
2021/05/24 02:47:19;;;;;;;3.60;0.73;;;13.70;74.50;;;12.83;65.34;100024.38;5028305;28;20069;-78
2021/05/24 02:49:57;;;;;;;3.63;1.30;;;13.60;74.30;;;12.85;65.55;100020.41;5027959;28;20087;-79
2021/05/24 02:52:33;;;;;;;8.82;1.50;;;13.60;74.50;;;12.84;64.90;100024.19;5028189;28;20061;-78
2021/05/24 02:55:12;;;;;;;3.83;0.95;;;13.70;74.50;;;12.86;65.08;100011.16;5028028;28;20559;-79
2021/05/24 02:57:51;;;;;;;4.03;0.85;;;13.70;74.70;;;12.86;64.73;100015.78;5028104;28;20048;-78
2021/05/24 03:00:30;;;;;;;2.70;0.82;;;13.70;74.40;;;12.85;64.83;100009.50;5027814;28;20041;-78
2021/05/24 03:03:11;;;;;;;2.42;0.82;;;13.70;74.30;;;12.85;64.55;100020.41;5028094;28;20054;-79
2021/05/24 03:05:46;;;;;;;3.05;1.00;;;13.70;73.30;;;12.88;65.09;100008.22;5027989;28;20059;-78
2021/05/24 03:08:24;;;;;;;2.55;0.95;;;13.70;74.10;;;12.87;65.25;100012.00;5026826;28;20056;-79
2021/05/24 03:10:59;;;;;;;3.10;1.13;;;13.70;74.40;;;12.85;64.41;100001.31;5027768;28;20057;-79
2021/05/24 03:13:33;;;;;;;3.33;0.90;;;13.70;73.80;;;12.87;64.57;100012.00;5028084;28;20049;-79
2021/05/24 03:16:11;;;;;;;5.95;1.00;;;13.70;73.40;;;12.87;64.86;100001.06;5026372;28;20487;-78
2021/05/24 03:18:49;;;;;;;3.15;0.80;;;13.70;73.60;;;12.89;63.89;100008.00;5027660;28;20060;-79
2021/05/24 03:21:27;;;;;;;3.58;1.05;;;13.80;73.40;;;12.91;64.75;100005.06;5031354;28;20060;-79
2021/05/24 03:24:02;;;;;;;2.92;0.93;;;13.90;73.70;;;12.90;64.18;100001.47;5034148;28;20513;-79
2021/05/24 03:26:37;;;;;;;4.35;1.17;;;13.80;73.30;;;12.91;63.76;99992.25;5031499;28;20413;-79
2021/05/24 03:29:17;;;;;;;2.90;0.88;;;13.80;73.10;;;12.90;64.13;99998.75;5031569;28;20046;-78
2021/05/24 03:31:52;;;;;;;4.75;0.98;;;13.80;72.70;;;12.94;64.12;100001.06;5031429;28;20037;-79
2021/05/24 03:34:30;;;;;;;4.53;0.93;;;13.90;73.00;;;12.94;64.06;99993.72;5031379;28;20052;-79
2021/05/24 03:37:09;;;;;;;3.85;1.05;;;13.80;72.60;;;12.96;63.78;99990.75;5029842;28;20425;-78
2021/05/24 03:39:42;;;;;;;2.45;0.80;;;13.80;72.70;;;12.96;64.08;99998.97;5057067;22;20049;-81
2021/05/24 03:42:20;;;;;;;6.20;1.25;;;13.90;72.70;;;12.97;64.14;99989.72;5051255;28;20049;-81
2021/05/24 03:44:56;;;;;;;3.03;0.98;;;13.90;72.80;;;12.98;64.18;99996.84;5051114;28;20386;-81
2021/05/24 03:47:36;;;;;;;4.82;0.98;;;13.90;72.50;;;13.00;64.22;100000.22;5051162;28;20864;-81
2021/05/24 03:50:16;;;;;;;3.63;1.08;;;13.90;72.90;;;12.99;63.75;99987.63;5034083;28;20462;-81
2021/05/24 03:52:51;;;;;;;9.10;1.00;;;14.00;72.70;;;12.98;63.98;99985.94;5029638;28;20112;-81
2021/05/24 03:55:26;;;;;;;4.63;0.93;;;14.00;72.20;;;13.01;64.03;99982.78;5031045;28;20640;-81
2021/05/24 03:58:01;;;;;;;2.75;1.00;;;14.00;72.30;;;13.01;63.28;99974.59;5031057;28;20053;-81
2021/05/24 04:00:41;;;;;;;5.63;1.20;;;14.00;72.20;;;13.03;63.62;99977.94;5030664;28;20045;-82
2021/05/24 04:03:13;;;;;;;5.93;0.85;;;14.10;72.00;;;13.04;63.56;99974.13;5030884;28;20041;-81
2021/05/24 04:05:58;;;;;;;2.67;1.00;;;14.10;71.70;;;13.06;63.58;99978.34;5030802;28;20049;-81
2021/05/24 04:08:36;;;;;;;3.65;0.90;;;14.10;71.20;;;13.09;63.25;99982.53;5030828;28;20506;-82
2021/05/24 04:11:14;;;;;;;4.80;1.27;;;14.10;71.40;;;13.09;63.07;99979.81;5030531;28;20124;-82
2021/05/24 04:13:50;;;;;;;3.90;0.90;;;14.10;71.70;;;13.09;63.53;99977.06;5030735;28;20049;-82
2021/05/24 04:16:27;;;;;;;3.63;0.90;;;14.20;71.40;;;13.12;63.72;99976.66;5030605;28;20053;-81
2021/05/24 04:19:05;;;;;;;3.40;0.90;;;14.20;71.80;;;13.11;63.34;99966.78;5030513;28;20061;-81
2021/05/24 04:21:44;;;;;;;2.80;0.90;;;14.20;71.40;;;13.15;63.04;99968.00;5030299;28;20088;-79
2021/05/24 04:24:23;;;;;;;5.55;1.70;;;14.20;71.40;;;13.16;62.54;99966.16;5030452;28;20046;-85
2021/05/24 04:27:00;;;;;;;5.65;0.98;;;14.20;71.30;;;13.19;63.68;99961.06;5030541;28;20448;-78
2021/05/24 04:29:38;;;;;;;2.85;1.00;;;14.20;72.20;;;13.17;62.71;99954.97;5030058;28;20041;-77
2021/05/24 04:32:22;;;;;;;3.50;1.17;;;14.20;71.30;;;13.18;63.11;99956.66;5028632;28;20049;-78
2021/05/24 04:34:55;;;;;;;3.22;1.08;;;14.20;71.30;;;13.20;63.51;99951.81;5030349;28;20572;-78
2021/05/24 04:37:32;;;;;;;4.40;1.50;;;14.30;71.30;;;13.21;63.49;99952.66;5030326;28;20099;-79
2021/05/24 04:40:14;;;;;;;3.53;0.95;;;14.30;71.30;;;13.22;63.21;99960.63;5028268;28;20787;-78
2021/05/24 04:42:47;;;;;;;6.70;0.90;;;14.30;71.30;;;13.21;63.04;99948.06;5028672;28;20061;-79
2021/05/24 04:45:24;;;;;;;3.58;1.00;;;14.40;70.80;;;13.19;63.04;99944.66;5030089;28;20080;-79
2021/05/24 04:48:07;;;;;;;4.38;1.00;;;14.40;70.30;;;13.24;63.49;99947.59;5030106;28;20049;-79
2021/05/24 04:50:42;;;;;;;3.63;1.15;;;14.40;71.30;;;13.28;63.45;99946.09;5029643;28;20045;-79
2021/05/24 04:53:17;;;;;;;3.70;1.02;;;14.40;71.10;;;13.34;62.92;99943.59;5029933;28;20122;-78
2021/05/24 04:55:56;;;;;;;5.00;1.13;;;14.50;70.60;;;13.40;63.12;99940.84;5029867;28;20513;-79
2021/05/24 04:58:34;;;;;;;3.20;0.90;;;14.60;70.80;;;13.49;63.56;99947.72;5029752;28;20049;-79
2021/05/24 05:01:12;;;;;;;2.78;0.85;;;14.70;71.00;;;13.56;61.91;99944.13;5029552;28;20049;-78
2021/05/24 05:03:48;;;;;;;6.55;1.20;;;14.80;69.40;;;13.62;62.70;99938.63;5029736;28;20045;-79
2021/05/24 05:06:23;;;;;;;2.83;1.15;;;14.90;69.50;;;13.67;62.99;99933.34;5029727;28;20057;-79
2021/05/24 05:08:58;;;;;;;4.95;0.73;;;14.90;69.90;;;13.73;62.52;99938.97;5029508;28;20052;-78
2021/05/24 05:11:33;;;;;;;2.67;0.85;;;15.00;69.40;;;13.79;62.48;99933.47;5029489;28;20046;-78
2021/05/24 05:14:12;;;;;;;5.05;0.90;;;15.10;69.30;;;13.85;62.00;99920.81;5029503;28;20049;-79
2021/05/24 05:16:47;;;;;;;5.43;1.10;;;15.10;69.20;;;13.91;61.76;99935.50;5029562;28;20510;-78
2021/05/24 05:19:26;;;;;;;4.75;1.10;;;15.20;68.70;;;13.91;61.66;99925.41;5029278;28;20046;-78
2021/05/24 05:22:04;;;;;;;2.92;0.82;;;15.20;68.40;;;13.89;61.51;99927.53;5031960;28;20065;-78
2021/05/24 05:24:39;;;;;;;5.13;0.90;;;15.30;68.40;;;13.93;61.13;99927.91;5027452;28;20045;-80
2021/05/24 05:27:14;;;;;;;4.97;1.10;;;15.30;67.50;;;13.96;61.63;99928.31;5029403;28;20037;-80
2021/05/24 05:29:49;;;;;;;3.05;0.80;;;15.30;68.30;;;13.97;61.29;99920.94;5028968;28;20052;-79
2021/05/24 05:32:24;;;;;;;3.17;1.00;;;15.40;67.60;;;13.99;61.03;99925.16;5027257;28;20929;-78
2021/05/24 05:35:05;;;;;;;3.60;0.90;;;15.30;67.40;;;14.11;60.42;99914.31;5027130;28;20034;-78
2021/05/24 05:37:53;;;;;;;3.85;0.90;;;15.50;67.70;;;14.25;60.12;99920.50;5026161;28;20037;-78
2021/05/24 05:40:33;;;;;;;1.92;0.80;;;15.50;66.90;;;14.47;60.59;99927.28;5029933;28;20615;-78
2021/05/24 05:43:11;;;;;;;2.85;0.90;;;15.70;67.20;;;14.73;60.45;99906.19;5025799;28;20521;-78
2021/05/24 05:45:47;;;;;;;2.42;0.70;;;15.80;67.40;;;14.99;58.50;99912.44;5027906;28;20052;-80
2021/05/24 05:48:25;;;;;;;5.03;0.70;;;16.00;66.10;;;15.27;57.81;99908.28;5027365;28;20048;-79
2021/05/24 05:51:04;;;;;;;2.97;0.80;;;16.20;65.20;;;15.53;56.35;99905.19;5027621;28;20037;-79
2021/05/24 05:53:36;;;;;;;2.33;0.80;;;16.50;63.80;;;15.76;56.54;99909.13;5027885;28;20041;-79
2021/05/24 05:59:26;;;;;;;2.00;0.65;;;17.00;64.00;;;16.25;53.75;99900.78;5026002;28;20144;-79
2021/05/24 06:02:05;;;;;;;5.15;0.82;;;17.30;61.20;;;16.44;54.54;99898.75;5025899;28;20053;-79
2021/05/24 06:04:38;;;;;;;3.17;0.75;;;17.50;61.30;;;16.62;54.07;99893.16;5026241;28;20045;-79
2021/05/24 06:07:24;;;;;;;3.83;0.70;;;17.70;61.10;;;16.82;53.50;99890.03;5025927;28;20049;-81
2021/05/24 06:10:02;;;;;;;3.17;0.75;;;18.00;60.40;;;16.89;52.14;99892.69;5026969;28;20048;-80
2021/05/24 06:12:40;;;;;;;5.00;1.30;;;18.20;58.90;;;16.96;51.76;99883.22;5027270;28;20053;-78
2021/05/24 06:15:24;;;;;;;5.32;1.00;;;18.50;57.50;;;16.99;51.63;99896.47;5027247;28;20064;-79
2021/05/24 06:18:01;;;;;;;3.55;1.00;;;18.70;56.40;;;16.97;52.01;99881.28;5027240;28;20057;-78
2021/05/24 06:20:42;;;;;;;4.13;0.80;;;18.90;56.10;;;16.95;50.33;99889.78;5026863;28;20095;-77
2021/05/24 06:23:24;;;;;;;4.13;1.00;;;18.90;54.80;;;16.92;51.11;99878.44;5027384;28;20520;-79
2021/05/24 06:26:03;;;;;;;3.45;0.80;;;18.90;56.20;;;16.87;50.77;99875.56;5027227;28;20049;-79
2021/05/24 06:28:41;;;;;;;2.28;0.65;;;18.90;54.80;;;16.81;50.74;99889.19;5027399;28;20041;-79
2021/05/24 06:31:19;;;;;;;1.98;0.88;;;18.80;55.30;;;16.73;51.70;99885.97;5027232;28;20475;-79
2021/05/24 06:33:54;;;;;;;2.72;1.10;;;18.80;56.30;;;16.65;51.87;99881.66;5027413;28;20042;-78
2021/05/24 06:36:32;;;;;;;3.22;0.80;;;18.70;56.00;;;16.59;52.80;99882.63;5027492;28;20589;-80
2021/05/24 06:39:08;;;;;;;7.82;1.00;;;18.60;56.50;;;16.52;51.69;99874.50;5027014;28;20038;-79
2021/05/24 06:41:46;;;;;;;3.38;0.90;;;18.60;55.00;;;16.49;51.92;99874.16;5027034;28;20864;-79
2021/05/24 06:44:25;;;;;;;4.50;1.02;;;18.50;55.30;;;16.42;51.46;99864.13;5027510;28;20131;-79
2021/05/24 06:47:00;;;;;;;3.97;1.02;;;18.40;54.60;;;16.41;52.51;99861.59;5027298;28;20673;-79
2021/05/24 06:49:39;;;;;;;4.20;0.73;;;18.30;56.20;;;16.42;52.50;99858.63;5026983;28;20041;-78
2021/05/24 06:52:19;;;;;;;3.50;0.80;;;18.40;56.50;;;16.42;52.84;99852.31;5025397;28;20060;-77
2021/05/24 06:54:58;;;;;;;2.78;0.80;;;18.40;57.40;;;16.43;53.66;99854.00;5026252;28;20489;-78
2021/05/24 06:57:35;;;;;;;;;;;18.40;56.50;;;16.42;53.59;99858.63;5010483;28;20042;-77
2021/05/24 07:00:12;;;;;;;6.90;0.95;;;18.40;56.50;;;16.44;54.32;99850.16;5018798;28;19929;-77
2021/05/24 07:02:53;;;;;;;5.22;0.70;;;18.40;56.80;;;16.46;54.47;99847.16;5030816;28;20046;-77
2021/05/24 07:05:31;;;;;;;2.65;0.80;;;18.40;56.90;;;16.47;53.68;99851.56;5030548;28;20053;-78
2021/05/24 07:08:06;;;;;;;4.75;0.90;;;18.40;56.60;;;16.49;54.81;99852.19;5030423;28;20080;-78
2021/05/24 07:10:46;;;;;;;3.92;0.98;;;18.40;57.50;;;16.49;55.03;99858.50;5030389;28;20053;-77
2021/05/24 07:13:21;;;;;;;4.82;0.80;;;18.50;57.50;;;16.51;54.21;99850.03;5033599;28;20049;-77
2021/05/24 07:15:59;;;;;;;7.05;1.45;;;18.50;56.90;;;16.51;53.24;99834.38;5030538;28;20046;-78
2021/05/24 07:18:39;;;;;;;3.63;1.00;;;18.40;56.50;;;16.52;53.46;99843.47;5028791;28;20057;-77
2021/05/24 07:21:14;;;;;;;4.53;1.10;;;18.40;56.70;;;16.53;53.23;99848.72;5030250;28;20045;-77
2021/05/24 07:23:52;;;;;;;5.07;1.10;;;18.40;57.20;;;16.55;54.28;99840.25;5030457;28;20057;-78
2021/05/24 07:26:31;;;;;;;4.30;0.80;;;18.40;57.40;;;16.57;55.50;99838.09;5030141;28;20194;-78
2021/05/24 07:29:10;;;;;;;2.38;0.80;;;18.40;57.90;;;16.63;54.95;99845.34;5030386;28;20048;-77
2021/05/24 07:31:48;;;;;;;4.35;1.10;;;18.40;57.80;;;16.64;54.94;99832.44;5029993;28;20457;-78
2021/05/24 07:34:26;;;;;;;4.50;1.00;;;18.40;57.90;;;16.68;54.54;99828.13;5030059;28;20046;-77
2021/05/24 07:37:04;;;;;;;4.13;0.88;;;18.50;57.10;;;16.68;55.40;99829.00;5030036;28;20046;-77
2021/05/24 07:39:41;;;;;;;7.47;1.33;;;18.50;57.50;;;16.72;56.17;99830.19;5030558;28;20111;-81
2021/05/24 07:42:18;;;;;;;9.63;1.27;;;18.60;59.30;;;16.61;54.32;99833.78;5030333;28;20056;-79
2021/05/24 07:44:55;;;;;;;4.50;0.98;;;18.50;56.80;;;16.56;55.26;99825.41;5030564;28;20049;-79
2021/05/24 07:47:34;;;;;;;7.32;1.05;;;18.40;57.70;;;16.55;54.95;99823.75;5030396;28;20037;-79
2021/05/24 07:50:10;;;;;;;6.35;1.48;;;18.40;58.60;;;16.57;56.39;99816.09;5030470;28;20041;-79
2021/05/24 07:52:45;;;;;;;7.97;1.05;;;18.40;58.60;;;16.55;56.31;99818.25;5030747;28;20680;-78
2021/05/24 07:55:23;;;;;;;6.20;1.10;;;18.40;58.00;;;16.57;55.68;99813.38;5030824;28;20045;-79
2021/05/24 07:58:02;;;;;;;3.72;0.95;;;18.40;58.50;;;16.58;55.92;99815.00;5030407;28;20046;-79
2021/05/24 08:00:40;;;;;;;4.28;0.90;;;18.40;58.60;;;16.62;56.89;99810.72;5030391;28;20059;-80
2021/05/24 08:03:15;;;;;;;4.88;1.10;;;18.40;59.30;;;16.69;56.48;99800.41;5030589;28;20053;-79
2021/05/24 08:05:54;;;;;;;4.97;1.10;;;18.50;59.40;;;16.70;56.18;99802.09;5028097;28;20391;-80
2021/05/24 08:08:32;;;;;;;5.75;1.35;;;18.50;59.30;;;16.79;56.95;99813.53;5030314;28;20096;-80
2021/05/24 08:11:12;;;;;;;2.40;0.90;;;18.60;59.20;;;16.84;55.12;99810.94;5030066;28;20033;-80
2021/05/24 08:13:53;;;;;;;5.28;1.02;;;18.60;58.00;;;16.91;56.38;99803.41;5030614;28;20125;-80
2021/05/24 08:16:31;;;;;;;3.17;0.70;;;18.60;59.40;;;16.96;55.86;99811.75;5030807;28;20077;-85
2021/05/24 08:19:04;;;;;;;4.65;0.90;;;18.60;58.60;;;16.96;56.53;99808.16;5030607;28;20045;-83
2021/05/24 08:21:42;;;;;;;8.63;1.27;;;18.70;59.60;;;16.88;54.73;99808.53;5030363;28;20049;-79
2021/05/24 08:24:18;;;;;;;5.65;1.00;;;18.70;57.70;;;16.77;53.09;99799.22;5030914;28;20045;-80
2021/05/24 08:26:51;;;;;;;3.17;1.00;;;18.60;56.60;;;16.69;53.19;99808.66;5030471;28;20049;-79
2021/05/24 08:29:28;;;;;;;3.10;1.10;;;18.50;56.60;;;16.63;53.02;99811.56;5030202;28;20452;-82
2021/05/24 08:32:06;;;;;;;3.40;1.00;;;18.40;56.50;;;16.57;53.39;99810.63;5026748;28;20119;-82
2021/05/24 08:34:44;;;;;;;3.72;0.90;;;18.40;57.50;;;16.51;53.78;99806.91;5029529;28;20045;-83
2021/05/24 08:37:19;;;;;;;5.15;0.90;;;18.30;56.80;;;16.45;53.50;99809.78;5029327;28;20413;-83
2021/05/24 08:39:57;;;;;;;4.95;1.00;;;18.30;57.10;;;16.40;53.84;99811.34;5010635;28;20046;-86
2021/05/24 08:42:39;;;;;;;5.18;1.25;;;18.20;57.30;;;16.39;54.66;99803.34;5014274;28;20045;-76
2021/05/24 08:45:24;;;;;;;5.47;1.25;;;18.20;58.30;;;16.37;54.67;99795.38;5030082;28;20559;-78
2021/05/24 08:48:02;;;;;;;4.20;0.93;;;18.20;58.00;;;16.34;54.14;99804.06;5015932;28;20510;-78
2021/05/24 08:50:40;;;;;;;4.70;0.90;;;18.10;58.00;;;16.32;53.32;99803.47;5026864;28;20045;-78
2021/05/24 08:53:17;;;;;;;5.15;1.20;;;18.10;56.90;;;16.28;53.82;99801.44;5029847;28;20045;-78
2021/05/24 08:55:54;;;;;;;3.45;0.98;;;18.10;57.60;;;16.26;54.20;99809.94;5029830;28;20075;-78
2021/05/24 08:58:34;;;;;;;5.57;1.10;;;18.00;57.90;;;16.24;54.21;99790.13;5029847;28;20508;-78
2021/05/24 09:01:13;;;;;;;3.10;0.90;;;18.00;58.30;;;16.22;53.43;99792.25;5029526;28;20045;-78
2021/05/24 09:03:57;;;;;;;8.70;1.60;;;18.00;56.90;;;16.18;53.41;99805.63;5029159;28;20077;-78
2021/05/24 09:06:47;;;;;;;4.82;1.05;;;17.90;57.30;;;16.17;54.15;99783.91;5029819;28;20049;-78
2021/05/24 09:09:23;;;;;;;2.42;0.80;;;17.90;57.60;;;16.15;53.58;99786.06;5029574;28;20046;-78
2021/05/24 09:12:06;;;;;;;6.05;1.00;;;17.80;57.70;;;16.14;54.31;99773.41;5029444;28;20519;-78
2021/05/24 09:14:44;;;;;;;4.80;1.10;;;17.80;57.80;;;16.14;54.65;99778.88;5029435;28;20053;-78
2021/05/24 09:17:27;;;;;;;4.88;1.15;;;17.90;58.10;;;16.13;53.45;99782.72;5029065;28;20045;-78
2021/05/24 09:20:16;;;;;;;4.90;0.80;;;17.90;57.20;;;16.12;53.81;99767.31;5028884;28;20068;-78
2021/05/24 09:23:14;;;;;;;7.57;1.30;;;17.80;57.10;;;16.13;53.96;99766.25;5029174;28;20056;-78
2021/05/24 09:26:08;;;;;;;3.38;0.98;;;17.80;57.40;;;16.13;54.58;99772.56;5009652;28;20510;-78
2021/05/24 09:28:46;;;;;;;;;;;17.80;58.30;;;16.14;54.94;99757.75;5009981;28;20054;-78
2021/05/24 09:31:32;;;;;;;5.15;1.25;;;17.80;58.40;;;16.13;54.48;99769.00;5009380;28;20385;-78
2021/05/24 09:34:09;;;;;;;5.05;1.00;;;17.90;58.60;;;16.13;54.13;99763.50;5009546;28;20516;-78
2021/05/24 09:36:46;;;;;;;4.65;0.98;;;17.90;57.90;;;16.11;53.82;99760.19;5009416;28;20119;-78
2021/05/24 09:39:27;;;;;;;3.83;0.98;;;17.80;57.20;;;16.12;54.24;99759.09;5031474;22;20056;-77
2021/05/24 09:42:12;;;;;;;6.07;0.80;;;17.80;57.80;;;16.12;55.90;99759.09;5048833;28;20132;-77
2021/05/24 09:44:58;;;;;;;4.05;0.90;;;17.90;59.50;;;16.13;54.72;99766.25;5048836;28;20118;-77
2021/05/24 09:47:48;;;;;;;6.85;1.75;;;17.80;57.80;;;16.14;55.09;99756.94;5048720;28;20049;-77
2021/05/24 09:50:26;;;;;;;6.88;1.20;;;17.80;58.50;;;16.17;54.66;99753.72;5048327;28;20046;-77
2021/05/24 09:53:04;;;;;;;3.88;1.02;;;17.80;58.20;;;16.25;54.35;99741.53;5030604;28;20456;-78
2021/05/24 09:55:39;;;;;;;4.28;0.70;;;17.90;58.00;;;16.30;55.45;99745.22;5048642;28;20082;-77
2021/05/24 09:58:17;;;;;;;9.93;1.10;;;17.90;59.00;;;16.34;55.07;99749.16;5048699;28;20048;-77
2021/05/24 10:01:12;;;;;;;3.20;1.10;;;18.00;59.20;;;16.36;56.69;99741.50;5048184;28;20493;-77
2021/05/24 10:03:46;;;;;;;4.15;1.05;;;18.00;60.00;;;16.39;56.32;99732.78;5048656;28;20106;-78
2021/05/24 10:06:23;;;;;;;3.80;1.00;;;18.00;59.20;;;16.41;57.13;99744.38;5048647;28;20052;-78
2021/05/24 10:09:00;;;;;;;6.55;1.00;;;18.10;60.50;;;16.41;56.30;99738.88;5048515;28;20045;-77
2021/05/24 10:11:40;;;;;;;2.72;0.90;;;18.10;60.20;;;16.40;58.98;99739.94;5048252;28;20048;-78
2021/05/24 10:14:18;;;;;;;7.17;1.20;;;18.10;61.30;;;16.39;58.90;99743.78;5048385;28;20049;-77
2021/05/24 10:17:01;;;;;;;3.50;1.05;;;18.10;61.90;;;16.36;60.19;99744.25;5048461;28;20041;-78
2021/05/24 10:19:39;;;;;;;5.32;1.08;;;18.10;63.10;;;16.31;60.77;99746.03;5048020;28;20497;-78
2021/05/24 10:22:15;;;;;;;5.63;1.20;;;18.00;63.60;;;16.27;62.48;99740.19;5048333;28;20053;-78
2021/05/24 10:24:50;;;;;;;5.30;1.17;;;18.00;65.20;;;16.21;63.12;99735.69;5048165;28;20094;-77
2021/05/24 10:27:26;;;;;;;3.65;1.20;;;17.90;66.00;;;16.18;66.73;99745.25;5048255;28;20103;-77
2021/05/24 10:30:05;;;;;;;4.63;1.20;;;17.80;68.40;;;16.13;67.67;99750.63;5047407;28;20041;-78
2021/05/24 10:32:54;;;;;;;6.72;1.65;;;17.80;70.20;;;16.09;69.77;99748.56;5048242;28;20044;-78
2021/05/24 10:35:40;;;;;;;7.15;1.45;;;17.80;71.70;;;16.03;68.95;99751.22;5048217;28;20436;-77
2021/05/24 10:38:36;;;;;;;6.40;1.63;;;17.70;71.60;;;16.01;70.37;99742.38;5048254;28;20052;-77
2021/05/24 10:41:17;;;;;;;7.32;1.77;;;17.60;73.10;;;16.00;70.84;99731.66;5047683;28;20045;-77
2021/05/24 10:43:59;;;;;;;;;;;17.60;73.20;;;15.89;67.63;99738.81;5048655;28;20111;-78
2021/05/24 10:46:38;;;;;;;4.22;1.33;;;17.50;70.70;;;15.86;67.56;99739.28;5048218;28;19924;-77
2021/05/24 10:49:29;;;;;;;5.07;1.25;;;17.50;70.60;;;15.84;68.13;99735.97;5048058;28;20045;-77
2021/05/24 10:52:22;;;;;;;6.75;1.50;;;17.50;71.70;;;15.80;67.11;99740.22;5048010;28;20045;-77
2021/05/24 10:55:01;;;;;;;3.88;1.17;;;17.40;70.60;;;15.77;67.66;99729.75;5045073;28;20065;-77
2021/05/24 10:57:41;;;;;;;2.92;1.23;;;17.40;70.90;;;15.78;68.14;99731.41;5047986;28;20676;-77
2021/05/24 11:00:22;;;;;;;9.82;1.40;;;17.30;71.80;;;15.76;68.32;99736.28;5047408;28;20049;-77
2021/05/24 11:03:11;;;;;;;5.75;1.33;;;17.30;71.80;;;15.73;66.73;99734.88;5047815;28;20044;-77
2021/05/24 11:06:09;;;;;;;4.47;1.10;;;17.20;71.10;;;15.72;67.02;99727.66;5047899;28;20056;-78
2021/05/24 11:08:51;;;;;;;4.45;1.10;;;17.20;71.00;;;15.70;66.00;99729.00;5047807;28;20040;-77